Time;durP1;ratioP1;P1;durP2;ratioP2;P2;SDS_P1;SDS_P2;PMS_P1;PMS_P2;Temp;Humidity;BMP_temperature;BMP_pressure;BME280_temperature;BME280_humidity;BME280_pressure;Samples;Min_cycle;Max_cycle;Signal;HPM_P1;HPM_P2
2022/05/01 00:13:29;;;;;;;;;;;;;;;9.24;82.11;101189.31;5041834;28;1791;-92
2022/05/01 00:15:54;;;;;;;;;;;;;;;9.17;81.02;101181.31;5029532;28;1902;-92
2022/05/01 00:18:23;;;;;;;;;;;;;;;8.98;81.58;101188.16;5024397;28;1920;-92
2022/05/01 00:21:11;;;;;;;;;;;;;;;8.98;82.52;101183.53;5032977;28;1282;-92
2022/05/01 00:23:47;;;;;;;;;;;;;;;9.00;82.10;101189.56;5034295;28;1213;-92
2022/05/01 00:26:15;;;;;;;;;;;;;;;8.95;81.47;101180.47;5033585;28;1275;-92
2022/05/01 00:28:41;;;;;;;;;;;;;;;8.95;81.08;101181.31;5038938;28;1970;-92
2022/05/01 00:31:07;;;;;;;;;;;;;;;9.01;81.85;101193.97;5014608;28;1362;-91
2022/05/01 00:36:25;;;;;;;;;;;;;;;9.19;81.58;101195.53;5034481;28;1886;-92
2022/05/01 00:38:51;;;;;;;;;;;;;;;9.16;80.57;101195.22;5032808;28;1321;-92
2022/05/01 00:41:16;;;;;;;;;;;;;;;9.25;79.87;101201.91;5014609;28;1280;-90
2022/05/01 00:44:03;;;;;;;;;;;;;;;9.27;80.03;101194.28;5027707;28;1948;-92
2022/05/01 00:46:29;;;;;;;;;;;;;;;9.29;80.85;101187.47;5036779;28;1523;-92
2022/05/01 00:48:54;;;;;;;;;;;;;;;9.23;79.95;101193.13;5037093;28;1425;-91
2022/05/01 00:51:20;;;;;;;;;;;;;;;9.16;80.38;101192.50;5036369;28;1912;-91
2022/05/01 00:53:46;;;;;;;;;;;;;;;9.08;81.05;101191.03;5036751;28;1338;-91
2022/05/01 00:56:12;;;;;;;;;;;;;;;9.02;81.64;101187.41;5036835;28;1890;-92
2022/05/01 00:58:37;;;;;;;;;;;;;;;9.04;81.84;101189.88;5036463;28;1216;-92
2022/05/01 01:01:03;;;;;;;;;;;;;;;8.97;81.95;101189.25;5036908;28;1466;-92
2022/05/01 01:03:28;;;;;;;;;;;;;;;8.93;81.66;101188.13;5036065;28;1550;-92
2022/05/01 01:05:53;;;;;;;;;;;;;;;8.88;81.38;101168.91;5036370;28;1731;-92
2022/05/01 01:08:19;;;;;;;;;;;;;;;8.81;82.04;101171.00;5036352;28;1319;-92
2022/05/01 01:10:44;;;;;;;;;;;;;;;8.82;82.74;101167.22;5035903;28;1312;-92
2022/05/01 01:13:10;;;;;;;;;;;;;;;8.48;82.84;101170.00;5036751;28;1243;-92
2022/05/01 01:15:36;;;;;;;;;;;;;;;8.48;83.55;101172.75;5036228;28;1963;-92
2022/05/01 01:18:01;;;;;;;;;;;;;;;8.71;83.38;101179.88;5036636;28;1283;-92
2022/05/01 01:20:27;;;;;;;;;;;;;;;8.82;82.80;101180.84;5033358;28;1236;-92
2022/05/01 01:22:53;;;;;;;;;;;;;;;8.83;82.22;101182.50;5036444;28;1323;-92
2022/05/01 01:25:21;;;;;;;;;;;;;;;8.82;82.22;101186.31;5036250;28;1437;-93
2022/05/01 01:27:47;;;;;;;;;;;;;;;8.85;82.14;101180.34;5036754;28;1250;-92
2022/05/01 01:32:56;;;;;;;;;;;;;;;8.91;81.17;101180.16;5037775;28;1910;-92
2022/05/01 01:35:25;;;;;;;;;;;;;;;8.91;80.56;101182.91;5035856;28;1885;-92
2022/05/01 01:37:52;;;;;;;;;;;;;;;8.98;81.22;101174.53;5035944;28;2033;-92
2022/05/01 01:40:28;;;;;;;;;;;;;;;8.93;81.86;101174.47;5035777;28;1335;-92
2022/05/01 01:42:54;;;;;;;;;;;;;;;8.88;82.18;101175.22;5032305;28;1089;-92
2022/05/01 01:45:20;;;;;;;;;;;;;;;8.88;82.05;101177.09;5035843;28;1841;-92
2022/05/01 01:47:49;;;;;;;;;;;;;;;8.88;81.33;101171.66;5035551;28;1322;-92
2022/05/01 01:50:14;;;;;;;;;;;;;;;8.88;81.08;101179.84;5044941;28;1492;-92
2022/05/01 01:52:44;;;;;;;;;;;;;;;8.83;81.69;101183.34;5016957;28;1847;-92
2022/05/01 01:55:09;;;;;;;;;;;;;;;8.86;81.32;101182.00;5034345;28;1882;-92
2022/05/01 01:57:34;;;;;;;;;;;;;;;8.85;81.14;101181.16;5035244;28;1878;-92
2022/05/01 01:59:59;;;;;;;;;;;;;;;8.87;81.57;101186.38;5035596;28;1334;-92
2022/05/01 02:02:24;;;;;;;;;;;;;;;8.84;80.44;101184.16;5035733;28;805;-92
2022/05/01 02:04:50;;;;;;;;;;;;;;;8.79;81.04;101173.16;5037416;28;1916;-92
2022/05/01 02:07:15;;;;;;;;;;;;;;;8.43;82.36;101175.38;5055132;28;1078;-92
2022/05/01 02:09:40;;;;;;;;;;;;;;;8.46;82.84;101172.16;5026129;28;1424;-92
2022/05/01 02:12:08;;;;;;;;;;;;;;;8.37;83.02;101168.19;5035418;28;1287;-92
2022/05/01 02:14:34;;;;;;;;;;;;;;;8.43;82.68;101177.28;5034777;28;1953;-92
2022/05/01 02:16:59;;;;;;;;;;;;;;;8.53;82.38;101172.81;5029088;28;1220;-92
2022/05/01 02:19:24;;;;;;;;;;;;;;;8.53;81.69;101169.25;5030526;28;1491;-92
2022/05/01 02:21:51;;;;;;;;;;;;;;;8.60;81.65;101172.63;5035073;28;1509;-92
2022/05/01 02:24:17;;;;;;;;;;;;;;;8.63;81.36;101177.59;5034695;28;1228;-92
2022/05/01 02:26:42;;;;;;;;;;;;;;;8.67;81.53;101167.84;5035015;28;1475;-92
2022/05/01 02:29:12;;;;;;;;;;;;;;;8.62;80.83;101176.75;5034289;28;1962;-93
2022/05/01 02:31:38;;;;;;;;;;;;;;;8.59;81.35;101171.78;5034895;28;1191;-92
2022/05/01 02:34:03;;;;;;;;;;;;;;;8.57;80.95;101167.69;5035926;28;889;-92
2022/05/01 02:36:29;;;;;;;;;;;;;;;8.60;81.45;101167.16;5034737;28;1997;-92
2022/05/01 02:38:54;;;;;;;;;;;;;;;8.64;81.38;101168.31;5034861;28;1356;-92
2022/05/01 02:41:20;;;;;;;;;;;;;;;8.67;80.69;101168.66;5051294;28;1571;-92
2022/05/01 02:43:46;;;;;;;;;;;;;;;8.68;80.83;101164.00;5041517;28;1384;-92
2022/05/01 02:46:11;;;;;;;;;;;;;;;8.66;81.17;101166.19;5015329;28;1343;-92
2022/05/01 02:48:36;;;;;;;;;;;;;;;8.63;81.53;101167.50;5021335;28;1894;-92
2022/05/01 02:51:04;;;;;;;;;;;;;;;8.60;81.70;101173.44;5034634;28;1358;-91
2022/05/01 02:53:29;;;;;;;;;;;;;;;8.52;81.64;101165.69;5034395;28;1526;-93
2022/05/01 02:55:55;;;;;;;;;;;;;;;8.64;82.15;101171.88;5033994;28;1886;-92
2022/05/01 02:58:20;;;;;;;;;;;;;;;8.66;81.27;101171.63;5034199;28;1196;-93
2022/05/01 03:00:45;;;;;;;;;;;;;;;8.67;81.26;101168.66;5042527;28;1869;-92
2022/05/01 03:03:11;;;;;;;;;;;;;;;8.69;80.60;101174.66;5046558;28;1912;-92
2022/05/01 03:05:36;;;;;;;;;;;;;;;8.73;80.25;101173.09;5033835;28;1346;-93
2022/05/01 03:08:01;;;;;;;;;;;;;;;8.76;80.96;101176.41;5030858;28;976;-92
2022/05/01 03:10:26;;;;;;;;;;;;;;;8.77;81.58;101175.31;5014637;28;1258;-93
2022/05/01 03:12:52;;;;;;;;;;;;;;;8.56;80.25;101166.03;5020986;28;1143;-93
2022/05/01 03:15:17;;;;;;;;;;;;;;;8.67;81.34;101163.19;5034163;28;1902;-92
2022/05/01 03:22:10;;;;;;;;;;;;;;;8.59;80.27;101166.34;5033960;28;1817;-93
2022/05/01 03:23:30;;;;;;;;;;;;;;;8.54;80.68;101174.47;5038245;28;1857;-92
2022/05/01 03:25:55;;;;;;;;;;;;;;;8.55;81.30;101170.66;5054045;28;1460;-92
2022/05/01 03:28:20;;;;;;;;;;;;;;;8.65;81.16;101167.25;5044120;28;1984;-92
2022/05/01 03:30:48;;;;;;;;;;;;;;;8.62;81.27;101165.00;5033552;28;1211;-92
2022/05/01 03:33:14;;;;;;;;;;;;;;;8.60;80.91;101170.72;5030560;28;1873;-92
2022/05/01 03:35:39;;;;;;;;;;;;;;;8.59;80.81;101169.06;5023202;28;1898;-92
2022/05/01 03:38:09;;;;;;;;;;;;;;;8.56;81.37;101166.84;5033901;28;1386;-92
2022/05/01 03:40:35;;;;;;;;;;;;;;;8.55;81.35;101173.38;5017400;28;1223;-92
2022/05/01 03:43:02;;;;;;;;;;;;;;;8.59;80.19;101171.00;5023024;28;1653;-92
2022/05/01 03:45:27;;;;;;;;;;;;;;;8.67;80.55;101171.38;5033600;28;1354;-92
2022/05/01 03:47:52;;;;;;;;;;;;;;;8.65;80.75;101165.34;5035073;28;1841;-92
2022/05/01 03:50:17;;;;;;;;;;;;;;;8.65;80.75;101167.25;5033487;28;1409;-92
2022/05/01 03:52:43;;;;;;;;;;;;;;;8.64;80.93;101173.78;5033900;28;1252;-92
2022/05/01 03:55:08;;;;;;;;;;;;;;;8.64;81.02;101173.78;5033510;28;1890;-92
2022/05/01 03:57:38;;;;;;;;;;;;;;;8.70;80.97;101173.59;5035047;28;1424;-91
2022/05/01 04:00:04;;;;;;;;;;;;;;;8.69;80.48;101171.13;5033262;28;1235;-92
2022/05/01 04:02:30;;;;;;;;;;;;;;;8.58;80.54;101170.16;5033266;28;1571;-92
2022/05/01 04:04:57;;;;;;;;;;;;;;;8.55;81.08;101164.38;5033477;28;1931;-93
2022/05/01 04:07:23;;;;;;;;;;;;;;;8.54;80.56;101166.28;5033214;28;1525;-92
2022/05/01 07:10:38;;;;;;;;;;;;;;;9.64;76.02;101221.75;5053281;28;1236;-91
2022/05/01 07:13:03;;;;;;;;;;;;;;;9.67;76.06;101221.25;5034767;28;1808;-90
2022/05/01 07:15:29;;;;;;;;;;;;;;;9.82;75.17;101216.75;5050774;28;1971;-90
2022/05/01 07:17:56;;;;;;;;;;;;;;;9.93;75.36;101216.88;5052945;28;1795;-90
2022/05/01 07:20:21;;;;;;;;;;;;;;;10.14;74.47;101222.25;5041685;28;1327;-90
2022/05/01 07:22:46;;;;;;;;;;;;;;;10.27;74.54;101221.03;5040796;28;1579;-91
2022/05/01 07:25:11;;;;;;;;;;;;;;;10.33;73.74;101216.41;5035238;28;1484;-91
2022/05/01 07:27:37;;;;;;;;;;;;;;;10.36;73.49;101215.91;5048653;28;1461;-91
2022/05/01 07:30:02;;;;;;;;;;;;;;;10.43;71.78;101213.78;5044411;28;1268;-91
2022/05/01 07:32:27;;;;;;;;;;;;;;;10.50;72.71;101211.63;5042495;28;1256;-90
2022/05/01 07:34:52;;;;;;;;;;;;;;;10.49;71.38;101212.72;5040752;28;1940;-90
2022/05/01 07:37:20;;;;;;;;;;;;;;;10.52;71.18;101220.41;5039810;28;1019;-90
2022/05/01 07:39:45;;;;;;;;;;;;;;;10.54;71.15;101215.50;5040750;28;1629;-91
2022/05/01 07:42:11;;;;;;;;;;;;;;;10.50;71.69;101222.56;5048123;28;884;-90
2022/05/01 07:44:36;;;;;;;;;;;;;;;10.47;70.03;101223.09;5045522;28;1262;-91
2022/05/01 07:47:01;;;;;;;;;;;;;;;10.43;70.30;101219.25;5050314;28;1257;-92
2022/05/01 07:49:26;;;;;;;;;;;;;;;10.33;70.08;101221.91;5041192;28;1222;-90
2022/05/01 07:51:51;;;;;;;;;;;;;;;10.27;70.10;101231.16;5031965;28;1266;-91
2022/05/01 07:54:16;;;;;;;;;;;;;;;10.13;67.93;101233.44;5037809;28;1401;-91
2022/05/01 07:56:42;;;;;;;;;;;;;;;10.05;68.50;101237.47;5038416;28;1957;-91
2022/05/01 07:59:08;;;;;;;;;;;;;;;10.09;70.34;101240.53;5037286;28;1239;-90
2022/05/01 08:01:33;;;;;;;;;;;;;;;10.09;68.88;101240.53;5032743;28;1267;-91
2022/05/01 08:06:42;;;;;;;;;;;;;;;10.04;67.26;101224.06;5049787;28;1186;-90
2022/05/01 08:09:08;;;;;;;;;;;;;;;10.07;68.41;101223.56;5052199;28;1133;-91
2022/05/01 08:11:33;;;;;;;;;;;;;;;10.12;66.97;101224.41;5048018;28;1713;-91
2022/05/01 08:13:58;;;;;;;;;;;;;;;10.20;67.63;101225.91;5034904;28;1314;-90
2022/05/01 08:16:24;;;;;;;;;;;;;;;10.24;68.16;101227.03;5040556;28;1922;-89
2022/05/01 08:21:35;;;;;;;;;;;;;;;10.36;68.06;101219.47;5053972;28;1236;-90
2022/05/01 08:24:01;;;;;;;;;;;;;;;10.41;67.40;101233.19;5048408;28;1218;-91
2022/05/01 08:26:26;;;;;;;;;;;;;;;10.48;66.66;101230.22;5053939;28;1318;-91
2022/05/01 08:28:52;;;;;;;;;;;;;;;10.45;66.32;101231.59;5037727;28;1342;-91
2022/05/01 08:31:18;;;;;;;;;;;;;;;10.35;66.86;101211.53;5038753;28;1268;-91
2022/05/01 08:33:43;;;;;;;;;;;;;;;10.50;66.24;101236.25;5032085;28;1177;-91
2022/05/01 08:36:08;;;;;;;;;;;;;;;10.51;65.31;101236.00;5037150;28;1911;-91
2022/05/01 08:38:36;;;;;;;;;;;;;;;10.43;65.30;101235.66;5052962;28;1371;-92
2022/05/01 08:41:01;;;;;;;;;;;;;;;10.41;63.86;101232.34;5049204;28;1235;-92
2022/05/01 08:43:26;;;;;;;;;;;;;;;10.49;65.99;101234.59;5042172;28;1483;-91
2022/05/01 08:45:59;;;;;;;;;;;;;;;10.50;66.61;101239.00;5051070;28;1356;-91
2022/05/01 08:48:34;;;;;;;;;;;;;;;10.59;66.26;101245.63;5051369;28;1255;-90
2022/05/01 08:51:01;;;;;;;;;;;;;;;10.55;66.41;101237.13;5051032;28;1284;-90
2022/05/01 08:53:28;;;;;;;;;;;;;;;10.44;64.94;101234.59;5045840;28;1543;-90
2022/05/01 08:55:55;;;;;;;;;;;;;;;10.20;66.34;101237.69;5051212;28;1914;-91
2022/05/01 08:58:20;;;;;;;;;;;;;;;10.20;67.01;101236.84;5051679;28;1280;-90
2022/05/01 09:00:46;;;;;;;;;;;;;;;10.20;66.62;101239.59;5052124;28;1761;-90
2022/05/01 09:03:12;;;;;;;;;;;;;;;10.28;66.36;101241.03;5046173;28;1328;-91
2022/05/01 09:05:39;;;;;;;;;;;;;;;10.46;67.28;101237.88;5055056;28;1237;-90
2022/05/01 09:08:05;;;;;;;;;;;;;;;10.53;66.15;101235.75;5055227;28;1203;-90
2022/05/01 09:10:31;;;;;;;;;;;;;;;10.57;66.08;101245.91;5054545;28;1390;-91
2022/05/01 09:12:57;;;;;;;;;;;;;;;10.59;66.47;101249.22;5054552;28;1193;-90
2022/05/01 09:15:34;;;;;;;;;;;;;;;10.62;67.37;101250.59;5054451;28;1894;-90
2022/05/01 09:18:04;;;;;;;;;;;;;;;10.61;65.58;101247.03;5054917;28;1665;-90
2022/05/01 09:20:29;;;;;;;;;;;;;;;10.52;64.98;101245.88;5054785;28;1303;-90
2022/05/01 09:22:55;;;;;;;;;;;;;;;10.60;65.69;101241.81;5054737;28;1659;-91
2022/05/01 09:25:24;;;;;;;;;;;;;;;10.67;66.58;101241.59;5054327;28;1392;-91
2022/05/01 09:27:52;;;;;;;;;;;;;;;10.73;65.67;101240.53;5055033;28;1326;-91
2022/05/01 09:30:21;;;;;;;;;;;;;;;10.62;64.45;101242.41;5052711;28;1379;-91
2022/05/01 09:32:49;;;;;;;;;;;;;;;10.66;65.52;101232.53;5054960;28;1403;-90
2022/05/01 09:35:27;;;;;;;;;;;;;;;10.67;64.94;101234.19;5054458;28;1939;-90
2022/05/01 09:38:10;;;;;;;;;;;;;;;10.74;64.03;101233.97;5047457;28;1192;-91
2022/05/01 09:40:37;;;;;;;;;;;;;;;10.74;63.28;101231.22;5051759;28;1346;-91
2022/05/01 09:43:02;;;;;;;;;;;;;;;10.85;64.05;101232.94;5047220;28;1714;-90
2022/05/01 09:45:31;;;;;;;;;;;;;;;10.86;64.75;101237.34;5054158;28;1322;-91
2022/05/01 09:47:57;;;;;;;;;;;;;;;10.89;65.49;101234.06;5054049;28;1211;-90
2022/05/01 09:50:38;;;;;;;;;;;;;;;10.97;65.51;101239.06;5043302;28;1429;-91
2022/05/01 09:53:03;;;;;;;;;;;;;;;11.03;66.91;101234.44;5052862;28;1365;-90
2022/05/01 09:55:29;;;;;;;;;;;;;;;11.08;66.01;101237.19;5052239;28;1886;-90
2022/05/01 09:58:05;;;;;;;;;;;;;;;11.18;66.03;101231.75;5055938;28;1010;-91
2022/05/01 10:00:48;;;;;;;;;;;;;;;11.26;65.58;101231.25;5054003;28;1392;-91
2022/05/01 10:03:19;;;;;;;;;;;;;;;11.38;65.43;101234.59;5049183;28;1447;-91
2022/05/01 10:05:46;;;;;;;;;;;;;;;11.46;64.32;101227.78;5054319;28;1160;-92
2022/05/01 10:08:12;;;;;;;;;;;;;;;11.51;63.76;101231.34;5054652;28;1302;-91
2022/05/01 10:10:37;;;;;;;;;;;;;;;11.57;63.04;101218.50;5054023;28;1706;-90
2022/05/01 10:13:05;;;;;;;;;;;;;;;11.54;60.77;101233.56;5053947;28;1686;-90
2022/05/01 10:15:31;;;;;;;;;;;;;;;11.57;62.13;101233.00;5045138;28;1948;-91
2022/05/01 10:17:57;;;;;;;;;;;;;;;11.65;62.35;101227.00;5044599;28;1366;-90
2022/05/01 10:20:23;;;;;;;;;;;;;;;11.70;62.71;101223.47;5050237;28;1367;-90
2022/05/01 10:22:50;;;;;;;;;;;;;;;11.88;61.37;101222.16;5050842;28;1240;-90
2022/05/01 10:25:18;;;;;;;;;;;;;;;11.97;60.29;101217.81;5036835;28;1248;-90
2022/05/01 10:27:51;;;;;;;;;;;;;;;11.69;58.94;101205.38;5050760;28;1436;-90
2022/05/01 10:33:13;;;;;;;;;;;;;;;12.02;61.03;101206.81;5035507;28;608;-90
2022/05/01 10:35:51;;;;;;;;;;;;;;;12.12;60.67;101204.91;5050294;28;1893;-91
2022/05/01 10:38:35;;;;;;;;;;;;;;;12.06;60.47;101208.75;5052629;28;1307;-90
2022/05/01 10:41:04;;;;;;;;;;;;;;;12.01;59.34;101203.25;5035621;28;1358;-91
2022/05/01 10:43:33;;;;;;;;;;;;;;;12.16;61.05;101207.94;5052249;28;1805;-91
2022/05/01 10:46:00;;;;;;;;;;;;;;;12.16;58.85;101193.41;5053057;28;1369;-90
2022/05/01 10:48:39;;;;;;;;;;;;;;;12.10;59.65;101192.56;5053348;28;1346;-90
2022/05/01 10:51:23;;;;;;;;;;;;;;;12.28;60.75;101186.53;5033561;28;1220;-91
2022/05/01 10:54:07;;;;;;;;;;;;;;;12.60;60.66;101188.97;5030678;28;1192;-90
2022/05/01 10:56:34;;;;;;;;;;;;;;;12.78;60.27;101193.03;5033241;28;1953;-90
2022/05/01 10:59:18;;;;;;;;;;;;;;;12.68;59.03;101185.66;5033354;28;1340;-88
2022/05/01 11:01:54;;;;;;;;;;;;;;;12.65;59.36;101186.22;5038842;28;1223;-88
2022/05/01 11:04:21;;;;;;;;;;;;;;;12.67;59.69;101178.53;5049668;28;1655;-91
2022/05/01 11:06:48;;;;;;;;;;;;;;;12.79;59.25;101187.28;5053123;28;1153;-90
2022/05/01 11:09:14;;;;;;;;;;;;;;;12.78;57.16;101185.63;5053693;28;1189;-90
2022/05/01 11:11:40;;;;;;;;;;;;;;;12.72;58.73;101184.00;5052732;28;1336;-90
2022/05/01 11:14:05;;;;;;;;;;;;;;;12.76;58.31;101176.03;5052826;28;1441;-90
2022/05/01 11:17:03;;;;;;;;;;;;;;;12.76;57.96;101174.09;5052614;28;1949;-91
2022/05/01 11:19:30;;;;;;;;;;;;;;;12.81;58.95;101179.59;5029605;28;1390;-90
2022/05/01 11:21:55;;;;;;;;;;;;;;;12.77;58.30;101185.91;5045419;28;1370;-90
2022/05/01 11:24:39;;;;;;;;;;;;;;;12.73;58.66;101176.59;5037852;28;1426;-90
2022/05/01 11:27:10;;;;;;;;;;;;;;;12.83;59.26;101162.84;5049655;28;1495;-90
2022/05/01 11:29:36;;;;;;;;;;;;;;;12.91;57.74;101165.00;5036991;28;1624;-91
2022/05/01 11:32:17;;;;;;;;;;;;;;;12.98;58.23;101165.53;5051665;28;1782;-89
2022/05/01 11:34:50;;;;;;;;;;;;;;;13.14;57.87;101166.31;5052946;28;1317;-89
2022/05/01 11:37:15;;;;;;;;;;;;;;;13.43;58.24;101155.47;5052762;28;1358;-90
2022/05/01 11:39:46;;;;;;;;;;;;;;;13.59;56.69;101159.75;5052587;28;1418;-91
2022/05/01 11:42:24;;;;;;;;;;;;;;;13.65;56.94;101155.88;5056852;28;1369;-91
2022/05/01 11:44:49;;;;;;;;;;;;;;;13.57;55.64;101160.03;5050147;28;1291;-91
2022/05/01 11:47:15;;;;;;;;;;;;;;;13.37;56.22;101148.31;5045390;28;1377;-92
2022/05/01 11:49:40;;;;;;;;;;;;;;;13.37;54.09;101162.91;5032992;28;1421;-92
2022/05/01 11:52:06;;;;;;;;;;;;;;;13.52;54.63;101153.75;5036045;28;1282;-91
2022/05/01 11:54:32;;;;;;;;;;;;;;;13.73;54.15;101147.00;5044436;28;1239;-92
2022/05/01 12:02:27;;;;;;;;;;;;;;;13.80;55.46;101144.75;5053524;28;1254;-91
2022/05/01 12:04:59;;;;;;;;;;;;;;;14.02;56.32;101138.81;5048857;28;1422;-91
2022/05/01 12:07:24;;;;;;;;;;;;;;;14.07;52.03;101132.44;5052162;28;1210;-92
2022/05/01 12:09:53;;;;;;;;;;;;;;;14.10;53.35;101127.19;5051673;28;1272;-91
2022/05/01 12:12:22;;;;;;;;;;;;;;;14.43;53.38;101122.78;5043418;28;1384;-88
2022/05/01 12:14:47;;;;;;;;;;;;;;;14.49;53.31;101129.88;5038491;28;1287;-92
2022/05/01 12:17:16;;;;;;;;;;;;;;;14.68;53.80;101125.25;5046440;28;1949;-91
2022/05/01 12:19:48;;;;;;;;;;;;;;;14.92;53.27;101121.66;5042769;28;1600;-92
2022/05/01 12:22:15;;;;;;;;;;;;;;;15.14;52.10;101122.75;5052677;28;1270;-91
2022/05/01 12:24:41;;;;;;;;;;;;;;;15.23;51.23;101111.06;5031610;28;1339;-91
2022/05/01 12:27:06;;;;;;;;;;;;;;;15.19;51.66;101115.53;5040318;28;1723;-91
2022/05/01 12:29:33;;;;;;;;;;;;;;;15.08;49.80;101112.09;5050931;28;1679;-91
2022/05/01 12:32:05;;;;;;;;;;;;;;;15.09;50.76;101120.06;5046802;28;1377;-90
2022/05/01 12:34:33;;;;;;;;;;;;;;;14.84;48.47;101117.63;5051660;28;1349;-90
2022/05/01 12:36:59;;;;;;;;;;;;;;;14.41;51.56;101113.16;5049216;28;1953;-90
2022/05/01 12:39:25;;;;;;;;;;;;;;;14.66;50.55;101110.94;5051741;28;1186;-89
2022/05/01 12:45:02;;;;;;;;;;;;;;;15.21;52.00;101113.31;5041776;28;1144;-90
2022/05/01 12:47:31;;;;;;;;;;;;;;;15.36;50.54;101102.88;5056655;28;1220;-92
2022/05/01 12:49:57;;;;;;;;;;;;;;;15.19;50.11;101105.34;5057585;28;1378;-92
2022/05/01 12:52:48;;;;;;;;;;;;;;;15.35;49.33;101101.25;5056468;28;1260;-92
2022/05/01 12:55:16;;;;;;;;;;;;;;;15.46;48.05;101096.41;5048294;28;1965;-92
2022/05/01 12:57:43;;;;;;;;;;;;;;;15.06;48.48;101097.78;5038757;28;1267;-93
2022/05/01 13:00:08;;;;;;;;;;;;;;;15.24;49.08;101093.41;5054849;28;1292;-92
2022/05/01 13:02:34;;;;;;;;;;;;;;;15.26;49.68;101096.69;5056523;28;1172;-92
2022/05/01 13:05:00;;;;;;;;;;;;;;;15.04;50.06;101089.81;5048008;28;1285;-90
2022/05/01 13:07:35;;;;;;;;;;;;;;;15.06;50.53;101089.50;5044030;28;1366;-91
2022/05/01 13:10:02;;;;;;;;;;;;;;;15.30;49.82;101087.53;5035982;28;1272;-91
2022/05/01 13:12:31;;;;;;;;;;;;;;;15.30;49.71;101084.78;5037388;28;1525;-92
2022/05/01 13:15:02;;;;;;;;;;;;;;;15.38;47.88;101091.56;5055360;28;1902;-92
2022/05/01 13:17:28;;;;;;;;;;;;;;;15.47;48.27;101082.31;5057228;28;1413;-92
2022/05/01 13:19:54;;;;;;;;;;;;;;;15.60;49.14;101085.44;5058156;28;1348;-92
2022/05/01 13:22:19;;;;;;;;;;;;;;;15.54;48.76;101083.91;5055587;28;1335;-90
2022/05/01 13:24:45;;;;;;;;;;;;;;;15.59;48.22;101073.59;5042403;28;1437;-92
2022/05/01 13:27:11;;;;;;;;;;;;;;;15.32;48.23;101079.75;5052052;28;1330;-91
2022/05/01 13:29:37;;;;;;;;;;;;;;;15.12;47.19;101080.06;5046814;28;1392;-92
2022/05/01 13:32:09;;;;;;;;;;;;;;;15.17;47.36;101076.41;5054423;28;1848;-92
2022/05/01 13:34:35;;;;;;;;;;;;;;;15.24;47.70;101065.81;5055856;28;1273;-91
2022/05/01 13:37:00;;;;;;;;;;;;;;;15.03;47.29;101070.81;5056457;28;1947;-90
2022/05/01 13:44:44;;;;;;;;;;;;;;;15.05;48.79;101068.59;5055037;28;1425;-91
2022/05/01 13:44:55;;;;;;;;;;;;;;;14.76;48.79;101063.97;5056081;28;1296;-91
2022/05/01 13:47:21;;;;;;;;;;;;;;;14.67;48.85;101067.69;5055471;28;1655;-92
2022/05/01 13:49:47;;;;;;;;;;;;;;;14.86;49.08;101051.19;5052300;28;1354;-91
2022/05/01 13:52:12;;;;;;;;;;;;;;;15.20;48.79;101049.06;5056539;28;1758;-92
2022/05/01 13:54:37;;;;;;;;;;;;;;;15.54;47.65;101051.63;5053352;28;1386;-92
2022/05/01 13:57:03;;;;;;;;;;;;;;;15.34;46.50;101052.72;5053800;28;1897;-92
2022/05/01 13:59:28;;;;;;;;;;;;;;;14.99;47.11;101055.97;5055262;28;1165;-89
2022/05/01 14:01:54;;;;;;;;;;;;;;;14.84;48.00;101050.66;5046929;28;1245;-90
2022/05/01 14:04:20;;;;;;;;;;;;;;;14.51;46.68;101047.75;5053053;28;1279;-91
2022/05/01 14:06:45;;;;;;;;;;;;;;;14.35;47.10;101043.50;5054377;28;1533;-91
2022/05/01 14:09:17;;;;;;;;;;;;;;;14.34;47.54;101037.19;5058481;28;1011;-91
2022/05/01 14:11:42;;;;;;;;;;;;;;;14.40;49.38;101029.69;5055018;28;1279;-89
2022/05/01 14:14:07;;;;;;;;;;;;;;;14.61;48.95;101042.13;5054316;28;1409;-91
2022/05/01 14:16:33;;;;;;;;;;;;;;;14.84;49.07;101031.38;5054344;28;1897;-90
2022/05/01 14:18:58;;;;;;;;;;;;;;;14.70;45.69;101031.28;5047095;28;1405;-92
2022/05/01 14:21:25;;;;;;;;;;;;;;;14.21;46.16;101026.03;5045221;28;1268;-91
2022/05/01 14:23:50;;;;;;;;;;;;;;;14.32;48.15;101033.06;5048666;28;1226;-91
2022/05/01 14:26:15;;;;;;;;;;;;;;;14.24;49.46;101026.28;5052044;28;1428;-92
2022/05/01 14:28:41;;;;;;;;;;;;;;;14.39;49.57;101023.38;5041614;28;1576;-92
2022/05/01 14:31:18;;;;;;;;;;;;;;;14.45;46.64;101020.56;5051022;28;1273;-92
2022/05/01 14:33:45;;;;;;;;;;;;;;;14.75;48.86;101017.44;5054728;28;1164;-91
2022/05/01 14:36:17;;;;;;;;;;;;;;;14.48;48.52;101020.78;5051458;28;1894;-92
2022/05/01 14:38:42;;;;;;;;;;;;;;;14.45;47.94;101018.66;5034892;28;1283;-91
2022/05/01 14:41:09;;;;;;;;;;;;;;;14.54;49.79;101019.63;5073793;28;1332;-90
2022/05/01 14:43:35;;;;;;;;;;;;;;;14.51;47.85;101019.41;5059928;28;1332;-91
2022/05/01 14:46:03;;;;;;;;;;;;;;;14.59;49.34;101024.25;5046422;28;1398;-91
2022/05/01 14:48:48;;;;;;;;;;;;;;;14.52;48.65;101021.84;5048396;28;1377;-92
2022/05/01 14:51:14;;;;;;;;;;;;;;;14.44;49.27;101014.25;5053488;28;1272;-91
2022/05/01 14:53:39;;;;;;;;;;;;;;;14.53;46.48;101017.16;5052357;28;1321;-92
2022/05/01 14:56:05;;;;;;;;;;;;;;;14.41;47.59;101006.56;5053756;28;1957;-91
2022/05/01 15:06:49;;;;;;;;;;;;;;;14.76;51.10;101006.13;5044512;28;1260;-93
2022/05/01 15:09:16;;;;;;;;;;;;;;;14.53;48.29;101006.97;5063574;28;1305;-91
2022/05/01 15:11:42;;;;;;;;;;;;;;;14.24;48.20;101008.94;5042972;28;1408;-92
2022/05/01 15:14:08;;;;;;;;;;;;;;;14.34;49.65;101003.31;5049627;28;1311;-92
2022/05/01 15:16:37;;;;;;;;;;;;;;;14.46;50.86;100998.22;5040722;28;1909;-91
2022/05/01 15:19:13;;;;;;;;;;;;;;;14.66;50.97;101005.41;5035098;28;1299;-91
2022/05/01 15:24:23;;;;;;;;;;;;;;;14.51;49.68;100992.66;5053242;28;1367;-91
2022/05/01 15:26:51;;;;;;;;;;;;;;;14.36;49.05;100990.91;5066299;28;1368;-92
2022/05/01 15:29:24;;;;;;;;;;;;;;;14.24;49.01;100987.72;5052000;28;1422;-90
2022/05/01 15:31:49;;;;;;;;;;;;;;;14.33;48.72;100996.16;5049918;28;1303;-91
2022/05/01 15:34:17;;;;;;;;;;;;;;;14.27;49.57;100997.34;5050406;28;1315;-92
2022/05/01 15:36:44;;;;;;;;;;;;;;;14.54;48.92;100992.09;5047378;28;1960;-92
2022/05/01 15:39:18;;;;;;;;;;;;;;;14.43;46.62;100998.00;5052216;28;1334;-91
2022/05/01 15:41:46;;;;;;;;;;;;;;;14.42;48.12;100994.44;5054295;28;1291;-90
2022/05/01 15:44:14;;;;;;;;;;;;;;;14.57;44.87;100988.72;5042948;28;1463;-92
2022/05/01 15:46:55;;;;;;;;;;;;;;;14.71;45.92;100986.09;5046521;28;1698;-91
2022/05/01 15:54:52;;;;;;;;;;;;;;;15.51;46.08;100984.00;5054296;28;1887;-93
2022/05/01 15:57:18;;;;;;;;;;;;;;;15.62;46.39;100983.88;5048686;28;1882;-90
2022/05/01 15:59:44;;;;;;;;;;;;;;;15.93;44.92;100984.97;5053242;28;1375;-91
2022/05/01 16:02:10;;;;;;;;;;;;;;;16.23;44.14;100978.06;5043348;28;1582;-91
2022/05/01 16:04:35;;;;;;;;;;;;;;;16.65;42.26;100979.69;5035476;28;1506;-92
2022/05/01 16:07:08;;;;;;;;;;;;;;;15.97;43.08;100971.38;5051054;28;1686;-91
2022/05/01 16:09:37;;;;;;;;;;;;;;;15.92;44.35;100971.47;5037702;28;1223;-91
2022/05/01 16:12:08;;;;;;;;;;;;;;;15.68;45.82;100971.63;5049134;28;1476;-90
2022/05/01 16:14:49;;;;;;;;;;;;;;;15.72;44.70;100972.66;5049696;28;1551;-93
2022/05/01 16:17:32;;;;;;;;;;;;;;;15.37;46.35;100957.50;5042452;28;1953;-90
2022/05/01 16:20:05;;;;;;;;;;;;;;;15.02;46.21;100967.16;5050429;28;1259;-91
2022/05/01 16:22:34;;;;;;;;;;;;;;;15.12;45.49;100962.31;5049173;28;1284;-91
2022/05/01 16:25:02;;;;;;;;;;;;;;;14.87;45.30;100967.41;5045658;28;1342;-91
2022/05/01 16:27:33;;;;;;;;;;;;;;;14.86;46.15;100965.75;5039039;28;1688;-92
2022/05/01 16:30:01;;;;;;;;;;;;;;;14.92;46.73;100962.63;5048995;28;1367;-90
2022/05/01 16:32:26;;;;;;;;;;;;;;;14.73;46.70;100957.09;5038677;28;1354;-90
2022/05/01 16:34:55;;;;;;;;;;;;;;;14.51;49.68;100962.38;5052032;28;1647;-92
2022/05/01 16:37:23;;;;;;;;;;;;;;;14.32;49.20;100961.47;5051707;28;1960;-91
2022/05/01 16:39:50;;;;;;;;;;;;;;;14.22;48.66;100962.41;5045173;28;1401;-92
2022/05/01 16:42:17;;;;;;;;;;;;;;;14.30;48.10;100960.94;5035938;28;1610;-91
2022/05/01 16:44:43;;;;;;;;;;;;;;;14.17;45.96;100958.91;5043559;28;1442;-91
2022/05/01 16:47:09;;;;;;;;;;;;;;;14.10;47.27;100955.69;5051954;28;1623;-91
2022/05/01 16:49:34;;;;;;;;;;;;;;;14.21;47.44;100954.44;5037290;28;1363;-92
2022/05/01 16:52:01;;;;;;;;;;;;;;;14.25;49.16;100956.31;5033044;28;1403;-92